createdAt,value
2019-03-05T00:01:52.262Z,7.84
2019-03-05T00:04:20.688Z,7.85
2019-03-05T00:06:49.324Z,7.86
2019-03-05T00:09:19.493Z,7.84
2019-03-05T00:11:47.931Z,7.76
2019-03-05T00:14:18.864Z,7.69
2019-03-05T00:16:47.651Z,7.62
2019-03-05T00:19:16.075Z,7.54
2019-03-05T00:21:44.552Z,7.50
2019-03-05T00:24:49.716Z,7.50
2019-03-05T00:27:18.154Z,7.49
2019-03-05T00:29:49.651Z,7.42
2019-03-05T00:32:18.183Z,7.44
2019-03-05T00:35:09.202Z,7.43
2019-03-05T00:37:40.857Z,7.46
2019-03-05T00:40:24.336Z,7.47
2019-03-05T00:43:13.468Z,7.48
2019-03-05T00:45:54.052Z,7.46
2019-03-05T00:48:39.959Z,7.41
2019-03-05T00:51:24.546Z,7.40
2019-03-05T00:53:56.456Z,7.37
2019-03-05T00:56:27.963Z,7.34
2019-03-05T00:58:59.480Z,7.31
2019-03-05T01:01:33.537Z,7.28
2019-03-05T01:04:19.645Z,7.26
2019-03-05T01:06:48.327Z,7.19
2019-03-05T01:09:18.602Z,7.12
2019-03-05T01:11:47.685Z,7.07
2019-03-05T01:14:16.388Z,7.04
2019-03-05T01:16:45.012Z,7.04
2019-03-05T01:19:13.447Z,7.05
2019-03-05T01:21:41.903Z,7.05
2019-03-05T01:24:10.814Z,7.02
2019-03-05T01:26:39.280Z,6.96
2019-03-05T01:29:07.752Z,6.92
2019-03-05T01:31:49.818Z,6.90
2019-03-05T01:34:19.881Z,6.89
2019-03-05T01:36:55.860Z,6.89
2019-03-05T01:39:28.841Z,6.87
2019-03-05T01:41:57.270Z,6.84
2019-03-05T01:44:25.782Z,6.85
2019-03-05T01:46:54.224Z,6.84
2019-03-05T01:49:22.719Z,6.82
2019-03-05T01:51:51.147Z,6.83
2019-03-05T01:54:19.622Z,6.85
2019-03-05T01:56:48.058Z,6.86
2019-03-05T01:59:16.511Z,6.85
2019-03-05T02:01:44.971Z,6.86
2019-03-05T02:04:13.984Z,6.85
2019-03-05T02:06:42.406Z,6.86
2019-03-05T02:09:11.576Z,6.86
2019-03-05T02:11:40.040Z,6.85
2019-03-05T02:14:08.833Z,6.87
2019-03-05T02:16:37.365Z,6.89
2019-03-05T02:19:40.406Z,6.92
2019-03-05T02:22:14.745Z,6.96
2019-03-05T02:25:04.344Z,6.98
2019-03-05T02:27:41.489Z,7.04
2019-03-05T02:30:13.009Z,7.07
2019-03-05T02:32:59.476Z,7.10
2019-03-05T02:35:30.981Z,7.15
2019-03-05T02:38:14.605Z,7.17
2019-03-05T02:40:46.078Z,7.10
2019-03-05T02:43:23.406Z,7.04
2019-03-05T02:46:00.765Z,6.97
2019-03-05T02:48:50.493Z,6.92
2019-03-05T02:51:38.558Z,6.90
2019-03-05T02:54:22.079Z,6.85
2019-03-05T02:57:07.877Z,6.85
2019-03-05T02:59:37.000Z,6.84
2019-03-05T03:02:14.335Z,6.83
2019-03-05T03:04:44.405Z,6.85
2019-03-05T03:07:12.901Z,6.85
2019-03-05T03:09:49.971Z,6.85
2019-03-05T03:12:18.450Z,6.86
2019-03-05T03:14:46.886Z,6.89
2019-03-05T03:17:15.411Z,6.92
2019-03-05T03:19:43.856Z,6.91
2019-03-05T03:22:12.307Z,6.87
2019-03-05T03:24:40.760Z,6.82
2019-03-05T03:27:09.204Z,6.80
2019-03-05T03:29:37.681Z,6.80
2019-03-05T03:32:06.207Z,6.85
2019-03-05T03:34:34.644Z,6.92
2019-03-05T03:37:03.129Z,6.93
2019-03-05T03:39:31.900Z,6.93
2019-03-05T03:42:00.605Z,6.95
2019-03-05T03:44:29.147Z,7.00
2019-03-05T03:46:57.595Z,7.06
2019-03-05T03:49:26.033Z,7.12
2019-03-05T03:51:54.540Z,7.15
2019-03-05T03:54:22.990Z,7.14
2019-03-05T03:56:51.424Z,7.09
2019-03-05T03:59:19.930Z,7.07
2019-03-05T04:01:48.362Z,7.08
2019-03-05T04:04:16.892Z,7.11
2019-03-05T04:06:45.322Z,7.06
2019-03-05T04:09:13.770Z,6.97
2019-03-05T04:11:42.184Z,6.87
2019-03-05T04:14:10.648Z,6.77
2019-03-05T04:16:39.142Z,6.71
2019-03-05T04:19:09.211Z,6.71
2019-03-05T04:21:37.783Z,6.74
2019-03-05T04:24:06.227Z,6.80
2019-03-05T04:26:34.667Z,6.81
2019-03-05T04:29:03.092Z,6.78
2019-03-05T04:31:33.080Z,6.72
2019-03-05T04:34:01.531Z,6.71
2019-03-05T04:36:29.943Z,6.79
2019-03-05T04:38:58.413Z,6.83
2019-03-05T04:41:27.130Z,6.82
2019-03-05T04:43:55.607Z,6.81
2019-03-05T04:46:31.671Z,6.78
2019-03-05T04:49:08.017Z,6.81
2019-03-05T04:51:44.034Z,6.80
2019-03-05T04:54:12.515Z,6.76
2019-03-05T04:56:40.954Z,6.71
2019-03-05T04:59:09.476Z,6.71
2019-03-05T05:01:37.894Z,6.74
2019-03-05T05:04:06.367Z,6.70
2019-03-05T05:06:35.157Z,6.68
2019-03-05T05:09:04.280Z,6.73
2019-03-05T05:11:32.868Z,6.74
2019-03-05T05:14:01.286Z,6.73
2019-03-05T05:16:29.878Z,6.70
2019-03-05T05:18:58.315Z,6.73
2019-03-05T05:21:26.785Z,6.81
2019-03-05T05:23:55.281Z,6.91
2019-03-05T05:26:23.702Z,6.99
2019-03-05T05:28:52.131Z,7.04
2019-03-05T05:31:20.758Z,6.91
2019-03-05T05:33:49.267Z,7.07
2019-03-05T05:36:17.684Z,7.06
2019-03-05T05:38:46.143Z,7.05
2019-03-05T05:41:14.587Z,7.05
2019-03-05T05:43:43.047Z,7.08
2019-03-05T05:46:11.499Z,7.11
2019-03-05T05:48:40.116Z,7.14
2019-03-05T05:51:08.812Z,7.10
2019-03-05T05:53:37.273Z,7.08
2019-03-05T05:56:05.734Z,7.07
2019-03-05T05:58:34.257Z,6.98
2019-03-05T06:01:04.455Z,6.84
2019-03-05T06:03:32.931Z,6.78
2019-03-05T06:06:01.354Z,6.75
2019-03-05T06:08:29.920Z,6.75
2019-03-05T06:10:58.458Z,6.72
2019-03-05T06:13:27.024Z,6.72
2019-03-05T06:15:55.557Z,6.72
2019-03-05T06:18:24.007Z,6.71
2019-03-05T06:20:52.483Z,6.72
2019-03-05T06:23:21.179Z,6.72
2019-03-05T06:25:49.617Z,6.70
2019-03-05T06:28:18.132Z,6.67
2019-03-05T06:30:46.613Z,6.63
2019-03-05T06:33:15.058Z,6.63
2019-03-05T06:35:43.644Z,6.66
2019-03-05T06:38:12.237Z,6.67
2019-03-05T06:40:40.713Z,6.64
2019-03-05T06:43:09.248Z,6.65
2019-03-05T06:45:37.664Z,6.59
2019-03-05T06:48:06.583Z,6.55
2019-03-05T06:50:34.998Z,6.50
2019-03-05T06:53:03.688Z,6.46
2019-03-05T06:55:32.153Z,6.44
2019-03-05T06:58:00.687Z,6.48
2019-03-05T07:00:40.887Z,6.60
2019-03-05T07:03:10.875Z,6.68
2019-03-05T07:06:15.503Z,6.68
2019-03-05T07:08:55.679Z,6.65
2019-03-05T07:11:42.506Z,6.54
2019-03-05T07:14:22.787Z,6.52
2019-03-05T07:16:59.912Z,6.63
2019-03-05T07:19:31.123Z,6.77
2019-03-05T07:22:02.624Z,6.84
2019-03-05T07:24:45.365Z,6.87
2019-03-05T07:27:15.978Z,6.91
2019-03-05T07:29:44.405Z,6.94
2019-03-05T07:32:12.827Z,7.00
2019-03-05T07:34:42.957Z,7.02
2019-03-05T07:37:12.344Z,6.97
2019-03-05T07:39:40.798Z,6.90
2019-03-05T07:42:09.235Z,6.85
2019-03-05T07:44:37.818Z,6.85
2019-03-05T07:47:06.294Z,6.91
2019-03-05T07:49:43.287Z,7.02
2019-03-05T07:52:04.976Z,7.05
2019-03-05T07:54:33.397Z,7.11
2019-03-05T07:57:01.832Z,7.20
2019-03-05T07:59:30.329Z,7.42
2019-03-05T08:01:58.802Z,7.61
2019-03-05T08:04:27.234Z,7.74
2019-03-05T08:06:55.671Z,8.08
2019-03-05T08:09:31.026Z,8.22
2019-03-05T08:12:20.612Z,8.20
2019-03-05T08:15:03.754Z,8.16
2019-03-05T08:17:32.369Z,8.02
2019-03-05T08:20:00.841Z,7.84
2019-03-05T08:22:29.314Z,7.78
2019-03-05T08:24:57.809Z,7.73
2019-03-05T08:27:26.308Z,7.73
2019-03-05T08:29:55.382Z,7.59
2019-03-05T08:32:23.887Z,7.46
2019-03-05T08:34:52.333Z,7.39
2019-03-05T08:37:20.806Z,7.29
2019-03-05T08:39:49.324Z,7.25
2019-03-05T08:42:17.746Z,7.18
2019-03-05T08:44:50.365Z,7.18
2019-03-05T08:47:16.354Z,7.27
2019-03-05T08:49:45.292Z,7.29
2019-03-05T08:52:13.881Z,7.37
2019-03-05T08:54:42.329Z,7.48
2019-03-05T08:57:10.740Z,7.62
2019-03-05T08:59:39.233Z,7.65
2019-03-05T09:02:07.826Z,7.72
2019-03-05T09:04:36.327Z,7.88
2019-03-05T09:07:04.971Z,8.07
2019-03-05T09:09:33.576Z,8.19
2019-03-05T09:12:01.994Z,8.15
2019-03-05T09:14:30.474Z,8.05
2019-03-05T09:16:58.923Z,7.92
2019-03-05T09:19:27.359Z,7.89
2019-03-05T09:21:55.864Z,7.90
2019-03-05T09:24:24.309Z,8.01
2019-03-05T09:26:52.744Z,8.18
2019-03-05T09:29:21.218Z,8.18
2019-03-05T09:31:49.710Z,8.27
2019-03-05T09:34:18.423Z,8.23
2019-03-05T09:36:50.853Z,8.26
2019-03-05T09:39:17.545Z,8.35
2019-03-05T09:41:46.022Z,8.47
2019-03-05T09:44:14.673Z,8.45
2019-03-05T09:46:43.109Z,8.50
2019-03-05T09:49:11.543Z,8.56
2019-03-05T09:51:40.047Z,8.46
2019-03-05T09:54:08.793Z,8.42
2019-03-05T09:56:37.355Z,8.43
2019-03-05T09:59:05.915Z,8.47
2019-03-05T10:01:34.572Z,8.44
2019-03-05T10:04:03.025Z,8.34
2019-03-05T10:06:31.499Z,8.38
2019-03-05T10:08:59.920Z,8.41
2019-03-05T10:11:28.665Z,8.43
2019-03-05T10:13:57.124Z,8.50
2019-03-05T10:16:25.560Z,8.58
2019-03-05T10:18:53.993Z,8.49
2019-03-05T10:21:22.445Z,8.45
2019-03-05T10:23:51.095Z,8.45
2019-03-05T10:26:19.674Z,8.46
2019-03-05T10:28:48.203Z,8.46
2019-03-05T10:31:18.741Z,8.47
2019-03-05T10:33:46.945Z,8.59
2019-03-05T10:36:15.385Z,8.75
2019-03-05T10:38:43.944Z,8.73
2019-03-05T10:41:12.756Z,8.64
2019-03-05T10:43:41.202Z,8.68
2019-03-05T10:46:09.872Z,8.72
2019-03-05T10:48:38.863Z,8.84
2019-03-05T10:51:07.516Z,8.87
2019-03-05T10:53:35.977Z,8.93
2019-03-05T10:56:05.036Z,8.97
2019-03-05T10:58:34.470Z,9.01
2019-03-05T11:01:05.125Z,8.92
2019-03-05T11:03:33.551Z,8.95
2019-03-05T11:06:02.441Z,9.08
2019-03-05T11:08:30.878Z,9.22
2019-03-05T11:11:00.898Z,9.31
2019-03-05T11:13:29.299Z,9.44
2019-03-05T11:16:02.771Z,9.57
2019-03-05T11:18:31.192Z,9.64
2019-03-05T11:20:59.723Z,9.36
2019-03-05T11:23:28.352Z,9.18
2019-03-05T11:25:56.867Z,9.12
2019-03-05T11:28:25.358Z,9.23
2019-03-05T11:30:53.823Z,9.60
2019-03-05T11:33:22.344Z,9.70
2019-03-05T11:35:51.224Z,9.67
2019-03-05T11:38:19.944Z,9.53
2019-03-05T11:40:48.422Z,9.41
2019-03-05T11:43:18.134Z,9.18
2019-03-05T11:45:46.737Z,9.30
2019-03-05T11:48:16.630Z,9.43
2019-03-05T11:50:45.389Z,9.50
2019-03-05T11:53:14.169Z,9.46
2019-03-05T11:55:42.598Z,9.20
2019-03-05T11:58:11.066Z,9.05
2019-03-05T12:00:47.475Z,8.74
2019-03-05T12:03:16.084Z,8.60
2019-03-05T12:05:44.529Z,8.73
2019-03-05T12:08:12.966Z,8.80
2019-03-05T12:10:41.492Z,8.92
2019-03-05T12:13:10.075Z,9.22
2019-03-05T12:15:43.323Z,9.63
2019-03-05T12:18:11.870Z,9.74
2019-03-05T12:20:40.400Z,9.70
2019-03-05T12:23:10.365Z,9.89
2019-03-05T12:25:39.989Z,10.00
2019-03-05T12:28:11.054Z,9.87
2019-03-05T12:30:39.961Z,9.58
2019-03-05T12:33:08.459Z,9.17
2019-03-05T12:35:36.903Z,8.89
2019-03-05T12:38:05.878Z,8.73
2019-03-05T12:40:36.136Z,8.98
2019-03-05T12:43:04.609Z,9.23
2019-03-05T12:45:33.055Z,9.26
2019-03-05T12:48:01.545Z,9.21
2019-03-05T12:50:35.849Z,9.11
2019-03-05T12:53:05.038Z,8.96
2019-03-05T12:55:33.731Z,8.99
2019-03-05T12:58:02.332Z,9.10
2019-03-05T13:00:35.782Z,9.24
2019-03-05T13:03:04.844Z,9.64
2019-03-05T13:05:33.294Z,9.89
2019-03-05T13:08:01.805Z,10.08
2019-03-05T13:10:36.099Z,9.97
2019-03-05T13:13:04.735Z,10.07
2019-03-05T13:15:38.454Z,10.13
2019-03-05T13:18:07.277Z,10.22
2019-03-05T13:20:36.096Z,10.16
2019-03-05T13:23:08.689Z,10.05
2019-03-05T13:25:34.857Z,9.97
2019-03-05T13:28:04.225Z,9.63
2019-03-05T13:30:33.112Z,9.53
2019-03-05T13:33:02.183Z,9.23
2019-03-05T13:35:32.195Z,8.95
2019-03-05T13:38:09.545Z,8.77
2019-03-05T13:40:40.323Z,8.77
2019-03-05T13:43:08.627Z,8.81
2019-03-05T13:45:37.121Z,8.91
2019-03-05T13:48:14.779Z,8.97
2019-03-05T13:51:01.057Z,8.95
2019-03-05T13:54:00.830Z,9.00
2019-03-05T13:56:51.660Z,9.07
2019-03-05T13:59:43.693Z,9.01
2019-03-05T14:02:13.854Z,9.08
2019-03-05T14:04:45.375Z,9.11
2019-03-05T14:07:36.095Z,9.15
2019-03-05T14:10:06.545Z,9.17
2019-03-05T14:12:34.989Z,9.10
2019-03-05T14:15:03.687Z,8.93
2019-03-05T14:17:32.963Z,8.83
2019-03-05T14:20:01.464Z,8.94
2019-03-05T14:22:30.025Z,9.14
2019-03-05T14:25:02.561Z,9.27
2019-03-05T14:27:28.599Z,9.51
2019-03-05T14:29:57.055Z,9.73
2019-03-05T14:32:25.521Z,9.98
2019-03-05T14:34:57.046Z,10.09
2019-03-05T14:37:25.997Z,10.08
2019-03-05T14:39:54.682Z,10.03
2019-03-05T14:42:23.086Z,10.13
2019-03-05T14:44:51.607Z,10.16
2019-03-05T14:47:20.193Z,10.27
2019-03-05T14:49:48.905Z,10.38
2019-03-05T14:52:17.305Z,10.30
2019-03-05T14:54:45.903Z,10.12
2019-03-05T14:57:14.684Z,9.87
2019-03-05T14:59:43.108Z,9.70
2019-03-05T15:02:11.714Z,9.63
2019-03-05T15:04:40.268Z,9.55
2019-03-05T15:07:08.854Z,9.11
2019-03-05T15:09:37.312Z,8.68
2019-03-05T15:12:05.737Z,8.54
2019-03-05T15:14:34.185Z,8.63
2019-03-05T15:17:02.636Z,8.84
2019-03-05T15:19:31.211Z,9.02
2019-03-05T15:21:59.684Z,9.15
2019-03-05T15:24:28.377Z,9.35
2019-03-05T15:26:57.222Z,9.56
2019-03-05T15:29:25.681Z,9.78
2019-03-05T15:31:54.278Z,10.02
2019-03-05T15:34:22.759Z,10.12
2019-03-05T15:36:52.294Z,10.16
2019-03-05T15:39:20.760Z,10.04
2019-03-05T15:41:49.253Z,9.92
2019-03-05T15:44:17.674Z,9.75
2019-03-05T15:46:46.149Z,9.71
2019-03-05T15:49:14.706Z,9.77
2019-03-05T15:51:43.146Z,9.89
2019-03-05T15:54:11.596Z,9.89
2019-03-05T15:56:40.016Z,9.74
2019-03-05T15:59:08.515Z,9.50
2019-03-05T16:01:37.121Z,9.34
2019-03-05T16:04:05.572Z,9.24
2019-03-05T16:06:35.240Z,9.17
2019-03-05T16:09:05.230Z,9.11
2019-03-05T16:11:35.148Z,9.01
2019-03-05T16:14:04.499Z,8.95
2019-03-05T16:16:33.015Z,8.92
2019-03-05T16:19:01.450Z,8.90
2019-03-05T16:21:29.889Z,8.96
2019-03-05T16:24:01.654Z,9.02
2019-03-05T16:26:28.571Z,9.03
2019-03-05T16:28:57.032Z,9.04
2019-03-05T16:31:30.396Z,9.08
2019-03-05T16:34:00.465Z,9.12
2019-03-05T16:36:33.229Z,9.17
2019-03-05T16:39:18.277Z,9.16
2019-03-05T16:41:48.413Z,9.02
2019-03-05T16:44:27.280Z,8.85
2019-03-05T16:46:57.349Z,8.71
2019-03-05T16:49:35.890Z,8.60
2019-03-05T16:52:11.438Z,8.56
2019-03-05T16:54:41.594Z,8.55
2019-03-05T16:57:27.856Z,8.61
2019-03-05T17:00:03.893Z,8.69
2019-03-05T17:02:34.001Z,8.75
2019-03-05T17:05:22.210Z,8.78
2019-03-05T17:08:00.585Z,8.81
2019-03-05T17:10:30.646Z,8.79
2019-03-05T17:12:59.351Z,8.74
2019-03-05T17:15:27.868Z,8.65
2019-03-05T17:17:56.313Z,8.56
2019-03-05T17:20:24.800Z,8.43
2019-03-05T17:22:53.234Z,8.36
2019-03-05T17:25:23.387Z,8.30
2019-03-05T17:27:51.948Z,8.22
2019-03-05T17:30:20.538Z,8.16
2019-03-05T17:32:49.779Z,8.11
2019-03-05T17:35:18.490Z,8.07
2019-03-05T17:37:47.158Z,8.03
2019-03-05T17:40:16.055Z,8.04
2019-03-05T17:42:44.568Z,8.02
2019-03-05T17:45:18.812Z,7.97
2019-03-05T17:50:28.072Z,7.96
2019-03-05T17:52:56.533Z,7.90
2019-03-05T17:55:27.353Z,7.91
2019-03-05T17:57:57.473Z,8.00
2019-03-05T18:00:27.556Z,8.12
2019-03-05T18:02:56.056Z,8.25
2019-03-05T18:05:24.531Z,8.36
2019-03-05T18:07:53.318Z,8.43
2019-03-05T18:10:22.156Z,8.48
2019-03-05T18:12:50.583Z,8.51
2019-03-05T18:15:19.182Z,8.50
2019-03-05T18:17:47.670Z,8.48
2019-03-05T18:20:24.107Z,8.47
2019-03-05T18:22:52.627Z,8.31
2019-03-05T18:25:21.498Z,8.38
2019-03-05T18:27:49.958Z,8.31
2019-03-05T18:30:26.820Z,8.27
2019-03-05T18:32:55.526Z,8.29
2019-03-05T18:35:24.047Z,8.30
2019-03-05T18:37:54.332Z,8.28
2019-03-05T18:40:24.021Z,8.20
2019-03-05T18:42:52.669Z,8.16
2019-03-05T18:45:28.022Z,8.11
2019-03-05T18:47:56.686Z,8.02
2019-03-05T18:50:25.290Z,7.91
2019-03-05T18:52:55.447Z,7.81
2019-03-05T18:55:24.874Z,7.75
2019-03-05T18:57:53.483Z,7.70
2019-03-05T19:00:25.644Z,7.66
2019-03-05T19:02:56.463Z,7.61
2019-03-05T19:05:25.140Z,7.55
2019-03-05T19:07:53.771Z,7.51
2019-03-05T19:10:24.691Z,7.49
2019-03-05T19:12:53.227Z,7.46
2019-03-05T19:15:23.363Z,7.43
2019-03-05T19:17:51.788Z,7.39
2019-03-05T19:20:23.325Z,7.37
2019-03-05T19:22:51.874Z,7.33
2019-03-05T19:25:24.087Z,7.31
2019-03-05T19:27:52.618Z,7.26
2019-03-05T19:30:24.121Z,7.25
2019-03-05T19:32:52.776Z,7.24
2019-03-05T19:35:21.222Z,7.25
2019-03-05T19:37:49.789Z,7.23
2019-03-05T19:40:20.947Z,7.24
2019-03-05T19:42:49.930Z,7.20
2019-03-05T19:45:18.914Z,7.15
2019-03-05T19:47:47.557Z,7.14
2019-03-05T19:50:17.974Z,7.12
2019-03-05T19:52:46.671Z,7.11
2019-03-05T19:55:25.992Z,7.10
2019-03-05T19:57:56.283Z,7.09
2019-03-05T20:00:34.202Z,7.08
2019-03-05T20:03:02.705Z,7.07
2019-03-05T20:05:31.135Z,7.02
2019-03-05T20:07:59.632Z,6.99
2019-03-05T20:10:30.804Z,6.96
2019-03-05T20:12:59.342Z,6.92
2019-03-05T20:15:28.627Z,6.93
2019-03-05T20:17:59.119Z,6.93
2019-03-05T20:20:27.355Z,6.90
2019-03-05T20:22:55.872Z,6.90
2019-03-05T20:25:26.617Z,6.86
2019-03-05T20:27:55.260Z,6.84
2019-03-05T20:30:24.527Z,6.84
2019-03-05T20:32:53.236Z,6.82
2019-03-05T20:35:21.848Z,6.81
2019-03-05T20:37:50.275Z,6.82
2019-03-05T20:40:29.183Z,6.79
2019-03-05T20:42:57.609Z,6.78
2019-03-05T20:45:29.293Z,6.79
2019-03-05T20:47:57.824Z,6.78
2019-03-05T20:50:26.261Z,6.80
2019-03-05T20:52:54.789Z,6.80
2019-03-05T20:55:24.489Z,6.77
2019-03-05T20:57:53.036Z,6.75
2019-03-05T21:00:25.792Z,6.73
2019-03-05T21:02:56.278Z,6.74
2019-03-05T21:05:26.753Z,6.73
2019-03-05T21:07:55.220Z,6.71
2019-03-05T21:10:23.669Z,6.69
2019-03-05T21:12:52.257Z,6.71
2019-03-05T21:15:20.794Z,6.72
2019-03-05T21:17:51.465Z,6.70
2019-03-05T21:20:19.997Z,6.69
2019-03-05T21:22:48.651Z,6.64
2019-03-05T21:25:20.736Z,6.56
2019-03-05T21:27:49.229Z,6.53
2019-03-05T21:30:22.371Z,6.44
2019-03-05T21:32:50.822Z,6.39
2019-03-05T21:35:19.273Z,6.37
2019-03-05T21:37:47.700Z,6.33
2019-03-05T21:40:24.644Z,6.31
2019-03-05T21:42:53.537Z,6.28
2019-03-05T21:45:31.223Z,6.26
2019-03-05T21:48:00.214Z,6.24
2019-03-05T21:50:28.765Z,6.23
2019-03-05T21:52:57.256Z,6.24
2019-03-05T21:55:25.942Z,6.25
2019-03-05T21:57:54.388Z,6.23
2019-03-05T22:00:28.299Z,6.22
2019-03-05T22:02:58.090Z,6.22
2019-03-05T22:05:26.646Z,6.19
2019-03-05T22:07:55.117Z,6.18
2019-03-05T22:10:24.138Z,6.14
2019-03-05T22:12:52.987Z,6.08
2019-03-05T22:15:23.161Z,6.07
2019-03-05T22:17:52.001Z,6.04
2019-03-05T22:20:22.140Z,6.03
2019-03-05T22:22:50.584Z,6.00
2019-03-05T22:25:23.242Z,5.96
2019-03-05T22:27:51.742Z,5.93
2019-03-05T22:30:31.301Z,5.92
2019-03-05T22:33:00.100Z,5.91
2019-03-05T22:35:28.552Z,5.91
2019-03-05T22:37:57.316Z,5.89
2019-03-05T22:40:26.837Z,5.87
2019-03-05T22:42:55.353Z,5.84
2019-03-05T22:45:32.537Z,5.84
2019-03-05T22:48:01.005Z,5.81
2019-03-05T22:50:29.438Z,5.80
2019-03-05T22:52:57.877Z,5.81
2019-03-05T22:55:26.512Z,5.81
2019-03-05T22:57:55.240Z,5.83
2019-03-05T23:00:44.585Z,5.85
2019-03-05T23:03:16.467Z,5.83
2019-03-05T23:05:44.880Z,5.80
2019-03-05T23:08:13.360Z,5.83
2019-03-05T23:10:41.869Z,5.86
2019-03-05T23:13:10.704Z,5.86
2019-03-05T23:15:39.212Z,5.84
2019-03-05T23:18:07.664Z,5.83
2019-03-05T23:20:36.276Z,5.85
2019-03-05T23:23:04.886Z,5.82
2019-03-05T23:25:33.370Z,5.80
2019-03-05T23:28:01.803Z,5.81
2019-03-05T23:30:30.298Z,5.90
2019-03-05T23:32:58.950Z,6.01
2019-03-05T23:35:27.464Z,6.11
2019-03-05T23:37:55.911Z,6.17
2019-03-05T23:40:24.389Z,6.17
2019-03-05T23:42:52.984Z,6.21
2019-03-05T23:45:21.621Z,6.24
2019-03-05T23:47:50.096Z,6.21
2019-03-05T23:50:18.801Z,6.18
2019-03-05T23:52:47.240Z,6.16
2019-03-05T23:55:16.657Z,6.16
2019-03-05T23:57:45.367Z,6.17
